Time;durP1;ratioP1;P1;durP2;ratioP2;P2;SDS_P1;SDS_P2;PMS_P1;PMS_P2;Temp;Humidity;BMP_temperature;BMP_pressure;BME280_temperature;BME280_humidity;BME280_pressure;Samples;Min_cycle;Max_cycle;Signal;HPM_P1;HPM_P2
2022/08/30 00:03:01;;;;;;;8.63;4.40;;;19.20;62.00;;;;;;5043217;28;20144;-63
2022/08/30 00:05:28;;;;;;;5.65;4.00;;;19.20;61.40;;;;;;5049777;28;20045;-63
2022/08/30 00:07:54;;;;;;;5.90;4.00;;;19.10;61.50;;;;;;5047704;28;20030;-64
2022/08/30 00:10:20;;;;;;;9.75;4.68;;;19.10;61.70;;;;;;5052086;28;20079;-64
2022/08/30 00:12:47;;;;;;;9.10;4.38;;;19.10;61.90;;;;;;5046697;28;20089;-63
2022/08/30 00:15:14;;;;;;;9.10;4.03;;;19.10;62.00;;;;;;5055010;28;20025;-65
2022/08/30 00:17:40;;;;;;;8.05;3.92;;;19.00;62.00;;;;;;5055499;28;20040;-63
2022/08/30 00:20:09;;;;;;;9.65;4.60;;;19.00;62.00;;;;;;5062937;28;20059;-64
2022/08/30 00:22:35;;;;;;;6.93;4.05;;;19.00;62.30;;;;;;5058507;28;20036;-63
2022/08/30 00:25:01;;;;;;;9.85;4.00;;;19.00;62.20;;;;;;5055959;28;20112;-63
2022/08/30 00:27:27;;;;;;;9.13;4.18;;;19.00;62.20;;;;;;5060743;28;20100;-64
2022/08/30 00:29:54;;;;;;;9.43;4.65;;;18.90;62.30;;;;;;5058138;28;20030;-64
2022/08/30 00:32:20;;;;;;;8.18;4.10;;;18.90;62.40;;;;;;5057758;28;20036;-65
2022/08/30 00:34:47;;;;;;;9.18;3.97;;;18.90;62.50;;;;;;5056367;28;20088;-64
2022/08/30 00:37:13;;;;;;;10.48;3.75;;;18.80;62.70;;;;;;5038321;28;20028;-64
2022/08/30 00:39:41;;;;;;;5.68;3.58;;;18.80;62.80;;;;;;5062981;28;20025;-65
2022/08/30 00:42:08;;;;;;;6.68;4.28;;;18.80;63.00;;;;;;5055162;28;20031;-63
2022/08/30 00:44:34;;;;;;;7.53;3.60;;;18.80;63.10;;;;;;5062132;28;20120;-65
2022/08/30 00:47:00;;;;;;;6.18;4.18;;;18.70;63.10;;;;;;5054053;28;20418;-64
2022/08/30 00:49:27;;;;;;;7.03;4.07;;;18.70;63.20;;;;;;5055625;28;20048;-64
2022/08/30 00:51:53;;;;;;;7.53;4.15;;;18.70;63.30;;;;;;5039802;28;20060;-65
2022/08/30 00:54:18;;;;;;;6.85;3.95;;;18.70;63.30;;;;;;5049970;28;20422;-62
2022/08/30 00:56:47;;;;;;;8.57;4.30;;;18.60;63.40;;;;;;5056554;28;20021;-63
2022/08/30 00:59:13;;;;;;;7.70;4.10;;;18.60;63.40;;;;;;5057303;28;20036;-64
2022/08/30 01:01:39;;;;;;;6.38;4.03;;;18.60;63.40;;;;;;5052870;28;20481;-64
2022/08/30 01:04:07;;;;;;;4.95;3.85;;;18.60;63.40;;;;;;5054942;28;20104;-65
2022/08/30 01:06:34;;;;;;;5.45;3.63;;;18.60;63.60;;;;;;5055848;28;20022;-64
2022/08/30 01:09:01;;;;;;;7.75;3.75;;;18.60;63.60;;;;;;5061650;28;20056;-65
2022/08/30 01:11:28;;;;;;;5.20;4.13;;;18.50;63.70;;;;;;5050457;28;20030;-63
2022/08/30 01:13:55;;;;;;;9.10;4.18;;;18.50;63.70;;;;;;5059848;28;20079;-64
2022/08/30 01:16:22;;;;;;;6.88;3.95;;;18.50;63.60;;;;;;5064383;28;20045;-66
2022/08/30 01:18:50;;;;;;;6.10;3.72;;;18.50;63.70;;;;;;5056113;28;20760;-64
2022/08/30 01:21:35;;;;;;;5.70;3.78;;;18.50;63.80;;;;;;5060548;28;20029;-64
2022/08/30 01:24:03;;;;;;;6.88;3.95;;;18.50;64.60;;;;;;5036792;28;20049;-64
2022/08/30 01:26:30;;;;;;;7.60;3.85;;;18.40;63.80;;;;;;5061567;28;20108;-63
2022/08/30 01:29:00;;;;;;;5.35;3.75;;;18.40;63.80;;;;;;5049470;28;20053;-63
2022/08/30 01:31:26;;;;;;;7.63;4.20;;;18.40;63.90;;;;;;5056891;28;20958;-63
2022/08/30 01:33:51;;;;;;;5.03;3.65;;;18.40;63.80;;;;;;5065733;28;20077;-64
2022/08/30 01:36:18;;;;;;;8.65;4.35;;;18.30;63.90;;;;;;5064621;28;20032;-64
2022/08/30 01:38:53;;;;;;;7.97;4.10;;;18.40;64.00;;;;;;5065770;28;20053;-64
2022/08/30 01:41:29;;;;;;;6.32;4.53;;;18.30;64.60;;;;;;5030989;28;20061;-63
2022/08/30 01:43:57;;;;;;;6.75;3.72;;;18.30;64.60;;;;;;5029002;28;20052;-63
2022/08/30 01:46:26;;;;;;;5.85;3.63;;;18.20;64.20;;;;;;5050209;28;20106;-64
2022/08/30 01:48:54;;;;;;;5.32;3.33;;;18.20;64.50;;;;;;5062775;28;20025;-63
2022/08/30 01:51:23;;;;;;;5.30;3.88;;;18.20;64.40;;;;;;5055455;28;20028;-63
2022/08/30 01:53:49;;;;;;;9.27;3.70;;;18.20;64.50;;;;;;5050115;28;20029;-63
2022/08/30 01:56:14;;;;;;;6.38;3.67;;;18.10;64.50;;;;;;5046545;28;20037;-62
2022/08/30 01:58:41;;;;;;;8.10;3.95;;;18.10;64.50;;;;;;5062286;28;20024;-63
2022/08/30 02:01:13;;;;;;;14.23;4.13;;;18.10;64.70;;;;;;5065615;28;20051;-64
2022/08/30 02:03:40;;;;;;;5.90;3.40;;;18.10;64.90;;;;;;5056053;28;20041;-62
2022/08/30 02:06:09;;;;;;;6.28;3.40;;;18.10;64.80;;;;;;5065185;28;20029;-64
2022/08/30 02:08:36;;;;;;;8.38;4.05;;;18.10;64.90;;;;;;5052272;28;20030;-64
2022/08/30 02:11:03;;;;;;;10.55;3.80;;;18.00;64.80;;;;;;5065965;28;20029;-62
2022/08/30 02:13:29;;;;;;;6.75;3.63;;;18.00;64.80;;;;;;5051345;28;20514;-64
2022/08/30 02:15:55;;;;;;;5.78;3.92;;;18.00;64.80;;;;;;5047899;28;20034;-63
2022/08/30 02:18:23;;;;;;;6.63;3.90;;;18.00;64.90;;;;;;5042816;28;20033;-63
2022/08/30 02:20:49;;;;;;;7.47;4.20;;;17.90;65.00;;;;;;5065985;28;20743;-62
2022/08/30 02:23:15;;;;;;;8.35;4.10;;;17.90;65.00;;;;;;5044959;28;20049;-64
2022/08/30 02:25:40;;;;;;;5.45;3.97;;;17.90;65.10;;;;;;5065723;28;20044;-64
2022/08/30 02:28:07;;;;;;;5.05;3.58;;;17.80;65.10;;;;;;5048803;28;20018;-62
2022/08/30 02:30:33;;;;;;;6.20;4.00;;;17.80;65.20;;;;;;5045233;28;20033;-63
2022/08/30 02:32:59;;;;;;;6.53;4.07;;;17.80;65.20;;;;;;5050268;28;20029;-61
2022/08/30 02:35:25;;;;;;;9.55;4.10;;;17.80;65.40;;;;;;5051235;28;20108;-63
2022/08/30 02:37:51;;;;;;;7.45;3.88;;;17.80;65.50;;;;;;5051101;28;20060;-63
2022/08/30 02:40:17;;;;;;;5.55;4.00;;;17.70;65.50;;;;;;5048340;28;20029;-62
2022/08/30 02:42:43;;;;;;;6.13;4.25;;;17.70;65.60;;;;;;5054474;28;20041;-63
2022/08/30 02:45:09;;;;;;;8.43;3.97;;;17.70;65.70;;;;;;5061286;28;20024;-62
2022/08/30 02:47:35;;;;;;;5.05;4.05;;;17.60;65.60;;;;;;5066368;28;20060;-62
2022/08/30 02:50:04;;;;;;;6.85;4.00;;;17.60;65.80;;;;;;5056895;28;20025;-62
2022/08/30 02:52:31;;;;;;;6.07;3.80;;;17.60;65.90;;;;;;5055436;28;20094;-63
2022/08/30 02:54:56;;;;;;;5.55;3.58;;;17.60;65.80;;;;;;5032490;28;20037;-63
2022/08/30 02:57:22;;;;;;;16.80;4.55;;;17.50;65.90;;;;;;5057807;28;20068;-63
2022/08/30 02:59:48;;;;;;;7.90;4.03;;;17.50;66.00;;;;;;5059852;28;20036;-62
2022/08/30 03:02:14;;;;;;;7.88;4.05;;;17.50;66.10;;;;;;5056879;28;20395;-63
2022/08/30 03:04:43;;;;;;;6.22;4.38;;;17.50;66.10;;;;;;5057010;28;20104;-62
2022/08/30 03:07:11;;;;;;;9.13;4.35;;;17.50;66.10;;;;;;5055403;28;20063;-63
2022/08/30 03:09:37;;;;;;;7.22;4.25;;;17.50;66.30;;;;;;5051965;28;20059;-63
2022/08/30 03:12:04;;;;;;;5.53;4.25;;;17.40;66.10;;;;;;5069865;28;20036;-63
2022/08/30 03:14:31;;;;;;;5.07;3.85;;;17.40;66.30;;;;;;5051718;28;22077;-64
2022/08/30 03:16:57;;;;;;;5.45;3.45;;;17.40;66.30;;;;;;5055986;28;20384;-62
2022/08/30 03:19:24;;;;;;;5.65;4.15;;;17.40;66.30;;;;;;5054620;28;20053;-61
2022/08/30 03:21:50;;;;;;;6.97;3.85;;;17.40;66.30;;;;;;5035577;28;21315;-64
2022/08/30 03:24:16;;;;;;;5.43;3.90;;;17.40;66.30;;;;;;5074578;28;20036;-63
2022/08/30 03:26:42;;;;;;;7.78;4.07;;;17.40;66.40;;;;;;5053941;28;20044;-62
2022/08/30 03:29:08;;;;;;;4.50;3.65;;;17.40;66.40;;;;;;5059109;28;20122;-61
2022/08/30 03:31:34;;;;;;;5.63;3.58;;;17.40;66.40;;;;;;5064421;28;20067;-62
2022/08/30 03:34:00;;;;;;;4.65;3.60;;;17.40;66.50;;;;;;5047417;28;20036;-63
2022/08/30 03:36:26;;;;;;;6.65;3.65;;;17.40;66.30;;;;;;5052752;28;20029;-65
2022/08/30 03:38:52;;;;;;;5.45;3.50;;;17.30;66.30;;;;;;5057265;28;20025;-62
2022/08/30 03:41:18;;;;;;;5.43;3.78;;;17.30;66.40;;;;;;5047844;28;20038;-63
2022/08/30 03:43:46;;;;;;;6.13;4.25;;;17.30;66.50;;;;;;5045762;28;20041;-62
2022/08/30 03:46:12;;;;;;;6.03;3.58;;;17.30;66.50;;;;;;5036701;28;20097;-62
2022/08/30 03:48:39;;;;;;;6.70;3.85;;;17.30;66.50;;;;;;5051064;28;20060;-63
2022/08/30 03:51:04;;;;;;;8.30;4.20;;;17.20;66.50;;;;;;5047937;28;20037;-63
2022/08/30 03:53:30;;;;;;;5.82;3.78;;;17.20;66.60;;;;;;5062128;28;20040;-62
2022/08/30 03:55:56;;;;;;;6.13;4.10;;;17.20;66.60;;;;;;5054201;28;20033;-63
2022/08/30 03:58:22;;;;;;;10.25;4.20;;;17.20;66.60;;;;;;5055155;28;20029;-63
2022/08/30 04:00:47;;;;;;;8.05;3.72;;;17.20;66.70;;;;;;5049539;28;20025;-62
2022/08/30 04:03:13;;;;;;;12.52;4.45;;;17.20;66.80;;;;;;5058833;28;20066;-62
2022/08/30 04:05:39;;;;;;;14.80;4.10;;;17.10;66.70;;;;;;5056491;28;20037;-62
2022/08/30 04:08:05;;;;;;;4.78;3.75;;;17.10;66.80;;;;;;5052666;28;20029;-62
2022/08/30 04:10:31;;;;;;;4.72;4.07;;;17.10;66.90;;;;;;5052057;28;20503;-61
2022/08/30 04:12:57;;;;;;;5.22;4.10;;;17.00;67.00;;;;;;5054153;28;20021;-62
2022/08/30 04:15:22;;;;;;;6.30;4.00;;;17.10;67.00;;;;;;5048466;28;20048;-64
2022/08/30 04:17:48;;;;;;;6.60;3.90;;;17.10;67.10;;;;;;5049557;28;20515;-63
2022/08/30 04:20:15;;;;;;;6.38;3.85;;;17.00;67.20;;;;;;5049633;28;20049;-61
2022/08/30 04:22:41;;;;;;;6.25;4.70;;;17.00;67.20;;;;;;5051728;28;20037;-63
2022/08/30 04:25:09;;;;;;;9.30;4.30;;;17.00;67.20;;;;;;5051428;28;20049;-64
2022/08/30 04:27:35;;;;;;;4.47;3.42;;;17.00;67.30;;;;;;5056173;28;20025;-62
2022/08/30 04:30:00;;;;;;;5.78;4.13;;;17.00;67.20;;;;;;5052847;28;20550;-63
2022/08/30 04:32:26;;;;;;;8.10;4.30;;;17.00;67.30;;;;;;5057955;28;20116;-63
2022/08/30 04:34:56;;;;;;;9.15;4.38;;;17.00;67.20;;;;;;5045839;28;20029;-62
2022/08/30 04:37:22;;;;;;;5.50;3.67;;;17.00;67.40;;;;;;5061115;28;20345;-61
2022/08/30 04:39:47;;;;;;;7.95;4.30;;;17.00;67.20;;;;;;5052799;28;20040;-63
2022/08/30 04:42:14;;;;;;;6.72;3.97;;;17.00;67.30;;;;;;5061592;28;20041;-62
2022/08/30 04:44:40;;;;;;;9.30;4.10;;;17.00;67.40;;;;;;5049157;28;20021;-63
2022/08/30 04:47:08;;;;;;;5.18;4.03;;;17.00;67.30;;;;;;5059099;28;20037;-62
2022/08/30 04:49:35;;;;;;;5.32;3.78;;;17.00;67.30;;;;;;5055668;28;20071;-64
2022/08/30 04:52:01;;;;;;;6.75;4.00;;;17.00;67.40;;;;;;5061441;28;20104;-62
2022/08/30 04:54:27;;;;;;;5.45;4.03;;;17.00;67.40;;;;;;5047437;28;20017;-63
2022/08/30 04:56:53;;;;;;;9.57;4.18;;;17.00;67.50;;;;;;5062768;28;20487;-63
2022/08/30 04:59:18;;;;;;;6.68;3.92;;;17.00;67.50;;;;;;5045608;28;20028;-63
2022/08/30 05:01:44;;;;;;;7.93;3.92;;;17.00;67.60;;;;;;5061663;28;20029;-62
2022/08/30 05:04:10;;;;;;;10.07;4.00;;;17.10;67.60;;;;;;5052309;28;20061;-62
2022/08/30 05:06:35;;;;;;;6.35;4.13;;;17.10;67.60;;;;;;5062714;28;20037;-62
2022/08/30 05:09:01;;;;;;;5.60;3.88;;;17.10;67.80;;;;;;5050089;28;20088;-62
2022/08/30 05:11:27;;;;;;;8.27;3.83;;;17.20;67.90;;;;;;5064792;28;20033;-62
2022/08/30 05:13:53;;;;;;;7.13;3.72;;;17.20;68.00;;;;;;5049973;28;20021;-64
2022/08/30 05:16:19;;;;;;;9.10;4.20;;;17.20;68.00;;;;;;5061032;28;20033;-63
2022/08/30 05:18:46;;;;;;;5.80;3.85;;;17.30;67.90;;;;;;5054839;28;20683;-62
2022/08/30 05:21:25;;;;;;;5.00;4.00;;;17.30;67.90;;;;;;5044322;28;20045;-63
2022/08/30 05:23:54;;;;;;;5.43;3.92;;;17.40;68.30;;;;;;5049105;28;20088;-63
2022/08/30 05:26:32;;;;;;;6.30;4.32;;;17.50;67.80;;;;;;5028768;28;20064;-62
2022/08/30 05:28:58;;;;;;;13.52;4.20;;;17.50;68.00;;;;;;5057545;28;20076;-63
2022/08/30 05:31:31;;;;;;;8.07;4.03;;;17.60;67.30;;;;;;5064637;28;20033;-62
2022/08/30 05:33:57;;;;;;;8.98;4.53;;;17.60;67.50;;;;;;5045921;28;20060;-62
2022/08/30 05:36:27;;;;;;;9.48;4.13;;;17.70;68.00;;;;;;5064007;28;20084;-62
2022/08/30 05:38:54;;;;;;;8.43;4.88;;;17.70;67.50;;;;;;5049455;28;20112;-63
2022/08/30 05:41:21;;;;;;;8.63;4.70;;;17.80;67.60;;;;;;5053503;28;20025;-63
2022/08/30 05:43:48;;;;;;;6.70;4.32;;;17.80;67.70;;;;;;5053635;28;20037;-62
2022/08/30 05:46:18;;;;;;;7.57;4.20;;;18.00;67.70;;;;;;5046134;28;20128;-63
2022/08/30 05:48:45;;;;;;;9.23;4.22;;;18.00;67.50;;;;;;5049124;28;20029;-61
2022/08/30 05:51:13;;;;;;;12.63;3.83;;;18.10;67.30;;;;;;5063326;28;20086;-63
2022/08/30 05:53:40;;;;;;;9.05;4.50;;;18.20;67.20;;;;;;5048543;28;20022;-61
2022/08/30 05:56:09;;;;;;;10.13;3.92;;;18.30;67.00;;;;;;5051933;28;20026;-64
2022/08/30 05:58:36;;;;;;;9.48;4.68;;;18.40;67.00;;;;;;5044175;28;20021;-61
2022/08/30 06:01:02;;;;;;;7.43;3.95;;;18.50;66.90;;;;;;5057821;28;20034;-64
2022/08/30 06:03:28;;;;;;;18.08;4.20;;;18.60;66.80;;;;;;5044928;28;20045;-62
2022/08/30 06:05:54;;;;;;;8.70;4.47;;;18.70;66.60;;;;;;5066034;28;20463;-62
2022/08/30 06:08:21;;;;;;;11.02;4.35;;;18.70;66.50;;;;;;5049626;28;20040;-64
2022/08/30 06:10:46;;;;;;;8.30;4.25;;;18.80;66.30;;;;;;5067631;28;20048;-63
2022/08/30 06:13:13;;;;;;;15.43;4.05;;;18.90;66.30;;;;;;5048520;28;20342;-62
2022/08/30 06:15:39;;;;;;;17.15;4.60;;;19.10;66.10;;;;;;5050956;28;20017;-62
2022/08/30 06:18:05;;;;;;;7.05;4.07;;;19.10;65.90;;;;;;5047822;28;20060;-64
2022/08/30 06:20:31;;;;;;;22.38;5.32;;;19.30;65.80;;;;;;5060256;28;20113;-62
2022/08/30 06:22:57;;;;;;;18.67;5.10;;;19.40;65.70;;;;;;5042880;28;20065;-62
2022/08/30 06:25:24;;;;;;;13.80;4.32;;;19.50;65.60;;;;;;5047231;28;20029;-62
2022/08/30 06:27:49;;;;;;;11.50;4.82;;;19.60;65.30;;;;;;5060343;28;20033;-62
2022/08/30 06:30:15;;;;;;;16.83;4.97;;;19.70;65.10;;;;;;5046793;28;20021;-63
2022/08/30 06:32:41;;;;;;;12.80;4.80;;;19.80;65.00;;;;;;5051153;28;20025;-63
2022/08/30 06:35:07;;;;;;;20.38;4.82;;;19.90;64.90;;;;;;5047333;28;20029;-62
2022/08/30 06:37:33;;;;;;;15.98;4.72;;;20.00;64.70;;;;;;5049745;28;20037;-62
2022/08/30 06:40:02;;;;;;;14.40;4.60;;;20.20;64.50;;;;;;5050036;28;20080;-62
2022/08/30 06:42:31;;;;;;;15.27;4.50;;;20.30;64.40;;;;;;5057712;28;20036;-62
2022/08/30 06:44:59;;;;;;;11.50;4.85;;;20.40;64.00;;;;;;5050866;28;20036;-64
2022/08/30 06:47:25;;;;;;;12.85;4.40;;;20.50;63.90;;;;;;5047432;28;20026;-63
2022/08/30 06:49:50;;;;;;;9.63;4.45;;;20.70;63.70;;;;;;5057953;28;20037;-63
2022/08/30 06:52:16;;;;;;;13.13;4.45;;;20.80;63.50;;;;;;5045984;28;20051;-63
2022/08/30 06:54:41;;;;;;;12.60;4.78;;;20.90;63.40;;;;;;5047324;28;20117;-64
2022/08/30 06:57:07;;;;;;;12.73;4.78;;;21.00;63.30;;;;;;5047134;28;20033;-63
2022/08/30 06:59:33;;;;;;;8.60;4.35;;;21.10;63.00;;;;;;5044155;28;20029;-63
2022/08/30 07:01:58;;;;;;;9.68;4.75;;;21.30;62.90;;;;;;5057436;28;20033;-63
2022/08/30 07:04:25;;;;;;;13.45;4.60;;;21.40;62.90;;;;;;5044836;28;20029;-63
2022/08/30 07:06:51;;;;;;;14.32;4.75;;;21.60;62.50;;;;;;5050489;28;20033;-62
2022/08/30 07:09:18;;;;;;;24.65;4.50;;;21.80;62.10;;;;;;5049072;28;20036;-61
2022/08/30 07:11:43;;;;;;;10.23;4.85;;;21.90;61.90;;;;;;5048062;28;20018;-62
2022/08/30 07:14:10;;;;;;;9.70;4.18;;;22.10;61.60;;;;;;5048928;28;20041;-64
2022/08/30 07:16:36;;;;;;;10.50;4.90;;;22.20;61.60;;;;;;5051428;28;20044;-62
2022/08/30 07:19:05;;;;;;;12.23;5.18;;;22.30;61.20;;;;;;5053906;28;20162;-62
2022/08/30 07:21:34;;;;;;;8.98;4.82;;;22.50;60.70;;;;;;5056780;28;20029;-63
2022/08/30 07:24:01;;;;;;;7.75;4.22;;;22.60;60.50;;;;;;5050874;28;20118;-62
2022/08/30 07:26:32;;;;;;;9.60;4.32;;;22.80;60.50;;;;;;5052973;28;20033;-64
2022/08/30 07:28:58;;;;;;;9.00;4.32;;;22.90;60.10;;;;;;5050051;28;20064;-64
2022/08/30 07:31:24;;;;;;;14.02;5.07;;;23.00;60.20;;;;;;5052945;28;20021;-63
2022/08/30 07:33:50;;;;;;;10.32;4.38;;;23.10;59.70;;;;;;5056231;28;20029;-63
2022/08/30 07:36:16;;;;;;;14.05;5.20;;;23.30;59.40;;;;;;5066606;28;20117;-63
2022/08/30 07:38:44;;;;;;;9.90;4.38;;;23.40;59.00;;;;;;5049031;28;20029;-61
2022/08/30 07:41:22;;;;;;;9.93;4.28;;;23.50;58.80;;;;;;5064998;28;20029;-63
2022/08/30 07:43:49;;;;;;;8.25;5.13;;;23.60;58.40;;;;;;5048308;28;20095;-63
2022/08/30 07:46:15;;;;;;;9.23;5.28;;;23.80;58.50;;;;;;5063436;28;20029;-62
2022/08/30 07:48:41;;;;;;;7.65;4.43;;;23.90;58.20;;;;;;5049579;28;20037;-63
2022/08/30 07:51:16;;;;;;;8.45;4.90;;;24.00;58.20;;;;;;5049280;28;20033;-61
2022/08/30 07:53:42;;;;;;;16.52;4.80;;;24.10;57.50;;;;;;5045715;28;20068;-63
2022/08/30 07:56:08;;;;;;;9.65;5.20;;;24.20;57.70;;;;;;5063017;28;20041;-62
2022/08/30 07:58:36;;;;;;;15.15;5.57;;;24.40;57.40;;;;;;5047603;28;20061;-62
2022/08/30 08:01:05;;;;;;;7.40;4.63;;;24.50;57.10;;;;;;5056122;28;20029;-62
2022/08/30 08:03:30;;;;;;;9.52;5.10;;;24.60;57.10;;;;;;5035702;28;20045;-63
2022/08/30 08:05:56;;;;;;;8.27;4.80;;;24.80;57.00;;;;;;5064487;28;20033;-64
2022/08/30 08:08:22;;;;;;;9.43;5.28;;;24.90;56.80;;;;;;5061081;28;20021;-62
2022/08/30 08:10:48;;;;;;;7.90;5.03;;;25.00;56.40;;;;;;5064076;28;20037;-63
2022/08/30 08:13:14;;;;;;;6.30;4.68;;;25.10;56.10;;;;;;5051687;28;20043;-64
2022/08/30 08:15:40;;;;;;;7.70;4.80;;;25.30;56.00;;;;;;5054000;28;20050;-62
2022/08/30 08:18:05;;;;;;;6.35;4.50;;;25.40;56.30;;;;;;5047105;28;20021;-63
2022/08/30 08:20:33;;;;;;;8.57;5.38;;;25.50;56.20;;;;;;5043407;28;20038;-63
2022/08/30 08:22:59;;;;;;;7.38;5.13;;;25.70;55.90;;;;;;5049327;28;20029;-63
2022/08/30 08:25:25;;;;;;;7.70;4.78;;;25.80;55.60;;;;;;5051995;28;20053;-63
2022/08/30 08:27:51;;;;;;;9.60;4.78;;;25.90;55.50;;;;;;5055808;28;20064;-62
2022/08/30 08:30:18;;;;;;;6.85;4.93;;;26.00;55.30;;;;;;5052417;28;20025;-63
2022/08/30 08:32:44;;;;;;;9.75;4.80;;;26.20;55.00;;;;;;5057587;28;20032;-62
2022/08/30 08:35:10;;;;;;;6.70;4.28;;;26.30;55.20;;;;;;5054784;28;20025;-64
2022/08/30 08:37:38;;;;;;;8.15;4.95;;;26.40;54.90;;;;;;5046791;28;20029;-63
2022/08/30 08:40:05;;;;;;;8.68;4.45;;;26.50;54.70;;;;;;5050203;28;20103;-63
2022/08/30 08:42:53;;;;;;;5.88;4.43;;;26.60;54.50;;;;;;5051656;28;20051;-64
2022/08/30 08:45:29;;;;;;;6.32;4.47;;;26.80;53.80;;;;;;5045179;28;20025;-63
2022/08/30 08:48:02;;;;;;;8.02;4.60;;;26.90;53.90;;;;;;5037617;28;20037;-63
2022/08/30 08:50:28;;;;;;;4.47;3.57;;;27.00;53.90;;;;;;5042994;28;20037;-62
2022/08/30 08:55:52;;;;;;;5.60;4.53;;;27.20;53.60;;;;;;5051782;28;20470;-63
2022/08/30 08:58:27;;;;;;;7.05;4.15;;;27.30;52.30;;;;;;5053530;28;20056;-63
2022/08/30 09:00:55;;;;;;;5.63;3.90;;;27.40;52.40;;;;;;5049342;28;20029;-64
2022/08/30 09:03:23;;;;;;;5.53;4.13;;;27.40;52.80;;;;;;5051404;28;20478;-63
2022/08/30 09:05:50;;;;;;;6.82;4.78;;;27.50;52.60;;;;;;5061106;28;20089;-64
2022/08/30 09:08:17;;;;;;;8.43;4.60;;;27.50;52.40;;;;;;5047036;28;20060;-63
2022/08/30 09:10:52;;;;;;;5.35;4.15;;;27.60;52.10;;;;;;5063896;28;20039;-62
2022/08/30 09:13:18;;;;;;;8.38;4.07;;;27.70;51.60;;;;;;5052214;28;20037;-63
2022/08/30 09:15:44;;;;;;;11.25;4.80;;;27.80;52.20;;;;;;5043366;28;20109;-63
2022/08/30 09:18:10;;;;;;;5.97;3.90;;;27.80;51.40;;;;;;5060264;28;20036;-61
2022/08/30 09:20:44;;;;;;;8.30;4.18;;;27.90;51.70;;;;;;5058002;28;21243;-63
2022/08/30 09:23:23;;;;;;;7.03;4.00;;;28.00;51.10;;;;;;5034149;28;20441;-63
2022/08/30 09:26:01;;;;;;;6.30;3.80;;;28.00;50.50;;;;;;5058892;28;20026;-62
2022/08/30 09:28:33;;;;;;;8.43;4.22;;;28.10;50.90;;;;;;5031058;28;20032;-63
2022/08/30 09:31:04;;;;;;;6.20;4.32;;;28.20;50.60;;;;;;5046817;28;20040;-62
2022/08/30 09:33:30;;;;;;;8.18;3.75;;;28.30;51.00;;;;;;5024309;28;20081;-63
2022/08/30 09:36:08;;;;;;;8.55;4.57;;;28.30;50.20;;;;;;5047858;28;20021;-63
2022/08/30 09:38:34;;;;;;;6.20;4.22;;;28.40;50.20;;;;;;5047630;28;20111;-63
2022/08/30 09:41:40;;;;;;;6.75;3.92;;;28.50;50.10;;;;;;5054063;28;20029;-63
2022/08/30 09:44:26;;;;;;;6.35;4.00;;;28.60;49.40;;;;;;5047165;28;20037;-62
2022/08/30 09:46:58;;;;;;;6.63;3.70;;;28.70;49.30;;;;;;5059637;28;20034;-62
2022/08/30 09:49:31;;;;;;;6.30;4.03;;;28.70;49.10;;;;;;5053118;28;20025;-63
2022/08/30 09:52:26;;;;;;;8.02;3.47;;;28.80;48.90;;;;;;5047817;28;20100;-64
2022/08/30 09:55:29;;;;;;;4.57;3.65;;;28.80;48.70;;;;;;5046741;28;20025;-62
2022/08/30 09:58:18;;;;;;;8.63;3.53;;;28.90;48.80;;;;;;5059087;28;20029;-63
2022/08/30 10:01:19;;;;;;;8.40;4.53;;;28.90;49.20;;;;;;5052837;28;20027;-63
2022/08/30 10:03:59;;;;;;;5.63;3.97;;;29.00;48.10;;;;;;5058267;28;20041;-63
2022/08/30 10:06:55;;;;;;;5.40;3.47;;;29.00;47.10;;;;;;5045662;28;20030;-62
2022/08/30 10:09:44;;;;;;;8.20;3.33;;;29.10;48.80;;;;;;5054032;28;20053;-63
2022/08/30 10:12:20;;;;;;;4.35;3.15;;;29.10;47.90;;;;;;5028341;28;20034;-64
2022/08/30 10:14:57;;;;;;;3.08;2.78;;;29.20;48.20;;;;;;5044881;28;20038;-62
2022/08/30 10:17:49;;;;;;;12.77;3.00;;;29.30;47.80;;;;;;5038401;28;20487;-63
2022/08/30 10:20:14;;;;;;;5.93;3.10;;;29.40;46.50;;;;;;5046378;28;20049;-63
2022/08/30 10:22:46;;;;;;;4.28;3.08;;;29.50;47.40;;;;;;5065179;28;20033;-64
2022/08/30 10:25:20;;;;;;;4.35;2.85;;;29.50;46.90;;;;;;5060120;28;20494;-63
2022/08/30 10:28:02;;;;;;;3.50;2.83;;;29.60;46.20;;;;;;5065639;28;20060;-64
2022/08/30 10:30:30;;;;;;;4.28;3.08;;;29.70;46.10;;;;;;5062651;28;20128;-64
2022/08/30 10:33:23;;;;;;;4.25;3.13;;;29.70;46.70;;;;;;5066657;28;20061;-63
2022/08/30 10:35:56;;;;;;;3.95;2.70;;;29.80;45.80;;;;;;5033467;28;20047;-63
2022/08/30 10:38:28;;;;;;;6.80;2.77;;;29.90;45.70;;;;;;5044115;28;20034;-64
2022/08/30 10:41:18;;;;;;;2.83;2.50;;;30.00;46.10;;;;;;5065284;28;20017;-63
2022/08/30 10:44:11;;;;;;;6.07;3.10;;;30.10;45.20;;;;;;5032654;28;20038;-63
2022/08/30 10:47:00;;;;;;;3.53;3.05;;;30.10;43.60;;;;;;5036908;28;20036;-64
2022/08/30 10:49:29;;;;;;;3.38;2.53;;;30.20;44.50;;;;;;5064370;28;20096;-63
2022/08/30 10:52:26;;;;;;;3.65;2.67;;;30.20;44.40;;;;;;5054578;28;20096;-64
2022/08/30 10:55:13;;;;;;;3.63;2.50;;;30.30;43.70;;;;;;5054731;28;20049;-64
2022/08/30 10:57:39;;;;;;;3.08;2.40;;;30.30;42.70;;;;;;5027682;28;20485;-63
2022/08/30 11:00:09;;;;;;;4.32;2.95;;;30.30;43.50;;;;;;5050426;28;20033;-63
2022/08/30 11:03:12;;;;;;;5.82;2.30;;;30.30;43.30;;;;;;5042066;28;20056;-65
2022/08/30 11:06:00;;;;;;;8.98;3.28;;;30.40;43.10;;;;;;5044285;28;20337;-64
2022/08/30 11:08:43;;;;;;;3.30;2.45;;;30.50;42.80;;;;;;5048478;28;20029;-64
2022/08/30 11:11:35;;;;;;;5.93;2.40;;;30.50;42.70;;;;;;5047007;28;20040;-63
2022/08/30 11:14:03;;;;;;;4.22;2.47;;;30.50;42.40;;;;;;5046163;28;20061;-63
2022/08/30 11:16:40;;;;;;;4.53;2.80;;;30.60;42.90;;;;;;5047561;28;20094;-63
2022/08/30 11:19:22;;;;;;;4.22;2.70;;;30.60;42.30;;;;;;5048846;28;20033;-63
2022/08/30 11:21:49;;;;;;;3.60;2.55;;;30.70;42.40;;;;;;5038647;28;20041;-63
2022/08/30 11:24:23;;;;;;;3.53;2.60;;;30.70;42.90;;;;;;5047307;28;20045;-63
2022/08/30 11:26:51;;;;;;;3.25;2.40;;;30.80;42.00;;;;;;5052855;28;20029;-64
2022/08/30 11:29:26;;;;;;;5.28;2.92;;;30.80;42.40;;;;;;5055028;28;20044;-65
2022/08/30 11:31:53;;;;;;;6.80;2.70;;;30.90;41.90;;;;;;5051592;28;20118;-64
2022/08/30 11:34:47;;;;;;;2.80;2.55;;;30.90;41.90;;;;;;5052990;28;20123;-64
2022/08/30 11:37:35;;;;;;;3.95;2.60;;;31.00;41.40;;;;;;5062928;28;20588;-63
2022/08/30 11:40:07;;;;;;;10.55;2.47;;;31.10;41.70;;;;;;5038460;28;20044;-63
2022/08/30 11:42:44;;;;;;;4.28;2.30;;;31.10;42.10;;;;;;5060727;28;20041;-63
2022/08/30 11:45:22;;;;;;;2.30;2.10;;;31.20;39.40;;;;;;5060068;28;20025;-63
2022/08/30 11:47:53;;;;;;;3.95;2.28;;;31.30;41.30;;;;;;5071569;28;20061;-63
2022/08/30 11:50:38;;;;;;;6.57;2.40;;;31.40;41.50;;;;;;5060623;28;20029;-65
2022/08/30 11:53:13;;;;;;;3.53;2.28;;;31.50;41.00;;;;;;5027105;28;20090;-63
2022/08/30 11:56:03;;;;;;;2.65;2.10;;;31.50;40.10;;;;;;5057260;28;20048;-65
2022/08/30 11:58:49;;;;;;;4.53;2.63;;;31.60;40.80;;;;;;5041027;28;20444;-64
2022/08/30 12:01:37;;;;;;;3.80;2.25;;;31.60;39.80;;;;;;5064773;28;20029;-63
2022/08/30 12:04:21;;;;;;;4.57;2.60;;;31.70;39.80;;;;;;5046344;28;20048;-64
2022/08/30 12:06:48;;;;;;;;;;;31.70;38.50;;;;;;5044888;28;20108;-63
2022/08/30 12:09:23;;;;;;;3.05;1.98;;;31.70;40.70;;;;;;5054292;28;19960;-63
2022/08/30 12:12:03;;;;;;;4.55;2.30;;;31.70;39.20;;;;;;5055320;28;20106;-63
2022/08/30 12:14:40;;;;;;;5.38;2.55;;;31.80;40.20;;;;;;5034273;28;20576;-62
2022/08/30 12:20:25;;;;;;;4.00;2.40;;;31.90;39.50;;;;;;5043558;28;20144;-62
2022/08/30 12:22:52;;;;;;;6.80;2.50;;;31.90;39.20;;;;;;5046827;28;20044;-63
2022/08/30 12:25:21;;;;;;;10.88;3.17;;;31.90;39.40;;;;;;5052943;28;20089;-63
2022/08/30 12:27:46;;;;;;;46.47;12.65;;;32.00;39.70;;;;;;5059473;28;20025;-62
2022/08/30 12:30:12;;;;;;;11.15;3.63;;;32.10;39.70;;;;;;5050240;28;20029;-64
2022/08/30 12:32:45;;;;;;;7.57;2.83;;;32.10;38.70;;;;;;5056306;28;20438;-64
2022/08/30 12:35:21;;;;;;;16.15;6.60;;;32.20;38.60;;;;;;5047444;28;20026;-63
2022/08/30 12:37:57;;;;;;;33.38;8.93;;;32.10;38.30;;;;;;5048421;28;20017;-62
2022/08/30 12:40:24;;;;;;;5.18;2.55;;;32.10;38.30;;;;;;5054090;28;20090;-62
2022/08/30 12:42:56;;;;;;;3.28;2.42;;;32.10;38.40;;;;;;5057571;28;20164;-63
2022/08/30 12:45:30;;;;;;;3.28;2.13;;;32.10;38.10;;;;;;5059997;28;20037;-65
2022/08/30 12:48:09;;;;;;;5.00;2.50;;;32.00;37.40;;;;;;5033190;28;20055;-63
2022/08/30 12:50:54;;;;;;;3.17;2.25;;;32.00;36.80;;;;;;5045748;28;20037;-64
2022/08/30 12:53:30;;;;;;;3.88;2.30;;;31.90;37.60;;;;;;5045786;28;20036;-63
2022/08/30 12:55:58;;;;;;;3.55;2.35;;;31.80;36.50;;;;;;5045239;28;20040;-63
2022/08/30 12:58:37;;;;;;;3.92;2.10;;;31.70;37.10;;;;;;5045370;28;20396;-64
2022/08/30 13:01:31;;;;;;;3.10;2.75;;;31.60;37.40;;;;;;5045164;28;20033;-65
2022/08/30 13:04:01;;;;;;;4.43;2.13;;;31.60;36.80;;;;;;5050346;28;20128;-64
2022/08/30 13:06:57;;;;;;;4.15;2.50;;;31.60;38.00;;;;;;5052456;28;20024;-63
2022/08/30 13:09:23;;;;;;;6.68;2.65;;;31.60;38.30;;;;;;5042059;28;20037;-64